Time;durP1;ratioP1;P1;durP2;ratioP2;P2;SDS_P1;SDS_P2;PMS_P1;PMS_P2;Temp;Humidity;BMP_temperature;BMP_pressure;BME280_temperature;BME280_humidity;BME280_pressure;Samples;Min_cycle;Max_cycle;Signal;HPM_P1;HPM_P2
2021/03/06 00:00:14;;;;;;;13.73;7.57;;;;;;;-1.33;67.12;97638.66;5032896;28;20465;-76
2021/03/06 00:02:41;;;;;;;12.60;7.38;;;;;;;-1.34;67.20;97644.75;5032424;28;20038;-76
2021/03/06 00:05:08;;;;;;;13.63;7.47;;;;;;;-1.39;67.14;97646.00;5032766;28;20052;-76
2021/03/06 00:07:36;;;;;;;12.95;7.10;;;;;;;-1.41;67.06;97645.28;5033247;28;20037;-75
2021/03/06 00:10:08;;;;;;;10.05;6.35;;;;;;;-1.40;67.04;97647.75;5032415;28;20046;-76
2021/03/06 00:12:34;;;;;;;11.88;6.38;;;;;;;-1.39;67.30;97653.72;5032647;28;20045;-76
2021/03/06 00:15:01;;;;;;;12.02;6.20;;;;;;;-1.40;67.37;97652.91;5032123;28;20053;-76
2021/03/06 00:17:27;;;;;;;11.70;6.80;;;;;;;-1.37;67.15;97654.44;5032180;28;20046;-76
2021/03/06 00:19:53;;;;;;;13.70;7.03;;;;;;;-1.38;66.95;97650.22;5032590;28;20474;-76
2021/03/06 00:22:19;;;;;;;14.52;7.25;;;;;;;-1.38;67.09;97665.66;5032384;28;20473;-76
2021/03/06 00:24:45;;;;;;;12.60;6.32;;;;;;;-1.40;67.31;97658.06;5032516;28;20049;-76
2021/03/06 00:27:12;;;;;;;11.70;7.03;;;;;;;-1.42;67.17;97653.97;5032120;28;20502;-76
2021/03/06 00:29:38;;;;;;;14.05;8.00;;;;;;;-1.48;67.25;97652.66;5032455;28;20042;-76
2021/03/06 00:32:04;;;;;;;10.75;6.53;;;;;;;-1.55;67.22;97649.72;5032233;28;20052;-76
2021/03/06 00:34:31;;;;;;;11.50;6.40;;;;;;;-1.55;67.04;97652.28;5014782;28;20053;-76
2021/03/06 00:36:57;;;;;;;11.82;6.75;;;;;;;-1.56;67.18;97660.09;5015043;28;20061;-75
2021/03/06 00:39:23;;;;;;;11.73;6.63;;;;;;;-1.61;66.90;97657.88;5032198;28;20505;-76
2021/03/06 00:41:49;;;;;;;12.13;6.80;;;;;;;-1.63;67.17;97662.31;5014420;28;20414;-76
2021/03/06 00:44:15;;;;;;;13.07;6.93;;;;;;;-1.62;66.94;97661.34;5032509;28;20049;-76
2021/03/06 00:46:42;;;;;;;11.68;6.88;;;;;;;-1.60;67.40;97661.25;5032437;28;20050;-76
2021/03/06 00:49:08;;;;;;;11.82;6.75;;;;;;;-1.64;67.26;97655.50;5032437;28;20393;-77
2021/03/06 00:51:34;;;;;;;11.45;7.00;;;;;;;-1.64;67.21;97648.63;5032174;28;20037;-76
2021/03/06 00:54:01;;;;;;;16.80;7.32;;;;;;;-1.69;67.23;97658.41;5032729;28;20057;-76
2021/03/06 00:56:27;;;;;;;12.07;6.75;;;;;;;-1.72;67.26;97650.94;5031782;28;20045;-75
2021/03/06 00:58:53;;;;;;;12.20;6.50;;;;;;;-1.73;66.96;97661.31;5014553;28;20057;-76
2021/03/06 01:01:20;;;;;;;10.73;6.65;;;;;;;-1.75;67.27;97653.72;5031853;28;20493;-76
2021/03/06 01:04:00;;;;;;;13.60;7.10;;;;;;;-1.74;67.21;97652.81;5032141;28;20501;-76
2021/03/06 01:06:26;;;;;;;11.80;6.88;;;;;;;-1.73;67.21;97656.19;5035001;28;20057;-76
2021/03/06 01:08:52;;;;;;;11.07;6.60;;;;;;;-1.72;67.22;97650.09;5035891;28;20045;-76
2021/03/06 01:11:19;;;;;;;15.35;7.50;;;;;;;-1.75;67.31;97653.72;5017766;28;20044;-77
2021/03/06 01:13:45;;;;;;;11.65;6.78;;;;;;;-1.77;67.25;97657.34;5035572;28;20484;-76
2021/03/06 01:16:11;;;;;;;13.00;7.13;;;;;;;-1.79;67.26;97651.47;5035582;28;20049;-76
2021/03/06 01:18:37;;;;;;;10.95;6.47;;;;;;;-1.77;67.15;97647.03;5035895;28;20474;-75
2021/03/06 01:21:04;;;;;;;12.30;6.25;;;;;;;-1.77;67.33;97644.47;5035265;28;20052;-75
2021/03/06 01:23:30;;;;;;;15.50;7.30;;;;;;;-1.77;67.09;97647.03;5034393;28;20041;-77
2021/03/06 01:25:56;;;;;;;14.77;6.85;;;;;;;-1.83;66.98;97643.16;5017017;28;20037;-77
2021/03/06 01:28:22;;;;;;;14.25;7.68;;;;;;;-1.86;67.22;97638.25;5035067;28;20052;-75
2021/03/06 01:30:49;;;;;;;12.35;7.40;;;;;;;-1.86;67.22;97639.06;5035570;28;20053;-75
2021/03/06 01:33:15;;;;;;;10.90;7.65;;;;;;;-1.87;67.01;97640.00;5035124;28;20029;-76
2021/03/06 01:35:41;;;;;;;12.27;7.25;;;;;;;-1.85;67.39;97634.72;5034416;28;20075;-76
2021/03/06 01:38:07;;;;;;;10.80;6.35;;;;;;;-1.88;67.35;97635.78;5035593;28;20060;-76
2021/03/06 01:40:36;;;;;;;11.68;7.30;;;;;;;-1.88;67.18;97637.53;5034717;28;20034;-75
2021/03/06 01:43:08;;;;;;;10.93;6.30;;;;;;;-1.87;66.94;97634.03;5035156;28;20478;-76
2021/03/06 01:45:35;;;;;;;10.50;6.32;;;;;;;-1.86;67.09;97633.91;5034498;28;20057;-76
2021/03/06 01:48:02;;;;;;;11.07;6.82;;;;;;;-1.87;66.88;97628.88;5035610;28;20033;-75
2021/03/06 01:50:30;;;;;;;12.27;6.60;;;;;;;-1.89;66.60;97630.75;5034511;28;20041;-76
2021/03/06 01:52:57;;;;;;;14.35;7.35;;;;;;;-1.89;66.84;97633.31;5034876;28;20045;-76
2021/03/06 01:55:26;;;;;;;11.23;7.07;;;;;;;-1.92;66.61;97636.94;5034695;28;20124;-76
2021/03/06 01:57:53;;;;;;;10.38;6.55;;;;;;;-2.02;66.95;97625.66;5034471;28;20041;-75
2021/03/06 02:00:21;;;;;;;14.15;6.85;;;;;;;-2.07;66.92;97626.00;5034406;28;20046;-76
2021/03/06 02:02:52;;;;;;;11.93;7.20;;;;;;;-2.07;66.78;97628.56;5035074;28;20046;-76
2021/03/06 02:05:19;;;;;;;11.23;6.47;;;;;;;-2.09;67.11;97630.44;5034048;28;20041;-75
2021/03/06 02:07:45;;;;;;;12.02;7.03;;;;;;;-2.10;67.03;97622.81;5017299;28;20382;-75
2021/03/06 02:10:15;;;;;;;11.00;6.90;;;;;;;-2.13;66.94;97617.91;5016491;28;20049;-76
2021/03/06 02:13:01;;;;;;;10.85;6.90;;;;;;;-2.16;66.63;97615.53;5034647;28;20045;-76
2021/03/06 02:15:55;;;;;;;11.10;6.65;;;;;;;-2.20;66.65;97617.53;5016448;28;20045;-76
2021/03/06 02:18:21;;;;;;;11.93;6.97;;;;;;;-2.21;67.04;97615.06;5033995;28;20037;-76
2021/03/06 02:20:56;;;;;;;10.70;6.95;;;;;;;-2.21;67.10;97613.31;5034702;28;20045;-76
2021/03/06 02:23:56;;;;;;;11.85;6.95;;;;;;;-2.21;67.06;97607.34;5034288;28;21316;-76
2021/03/06 02:26:50;;;;;;;13.10;6.35;;;;;;;-2.21;66.76;97605.59;5032479;28;20048;-76
2021/03/06 02:29:39;;;;;;;10.60;6.90;;;;;;;-2.21;66.92;97605.59;5025375;28;20064;-76
2021/03/06 02:32:36;;;;;;;10.02;6.60;;;;;;;-2.18;66.72;97604.56;5034413;28;20045;-76
2021/03/06 02:35:09;;;;;;;12.63;6.78;;;;;;;-2.18;67.05;97596.84;5024690;28;20053;-76
2021/03/06 02:37:42;;;;;;;11.52;6.93;;;;;;;-2.18;66.47;97600.25;5034348;28;20045;-76
2021/03/06 02:40:11;;;;;;;12.73;7.13;;;;;;;-2.17;66.55;97603.63;5034180;28;20041;-76
2021/03/06 02:42:40;;;;;;;11.98;7.15;;;;;;;-2.19;66.51;97602.94;5033930;28;20030;-76
2021/03/06 02:45:07;;;;;;;10.48;7.05;;;;;;;-2.20;66.79;97609.81;5034031;28;20054;-77
2021/03/06 02:47:34;;;;;;;12.48;7.55;;;;;;;-2.24;66.58;97608.41;5033848;28;20042;-76
2021/03/06 02:50:03;;;;;;;11.35;7.80;;;;;;;-2.26;66.59;97610.25;5033679;28;20477;-76
2021/03/06 02:52:29;;;;;;;12.93;7.13;;;;;;;-2.26;66.55;97607.69;5033808;28;20033;-76
2021/03/06 02:54:55;;;;;;;11.63;6.68;;;;;;;-2.27;66.73;97603.47;5033116;28;20512;-76
2021/03/06 02:57:31;;;;;;;13.75;6.88;;;;;;;-2.34;66.42;97597.94;5033429;28;20049;-76
2021/03/06 03:00:13;;;;;;;13.43;7.32;;;;;;;-2.39;66.46;97594.03;5033851;28;20099;-75
2021/03/06 03:02:53;;;;;;;9.52;6.60;;;;;;;-2.43;66.24;97598.59;5033844;28;20049;-76
2021/03/06 03:05:27;;;;;;;12.48;7.60;;;;;;;-2.48;66.52;97598.94;5032555;28;20049;-76
2021/03/06 03:08:11;;;;;;;13.05;7.32;;;;;;;-2.53;66.61;97597.59;5015573;28;20409;-76
2021/03/06 03:10:44;;;;;;;13.40;7.22;;;;;;;-2.58;66.86;97594.53;5033472;28;20064;-76
2021/03/06 03:13:56;;;;;;;13.27;7.13;;;;;;;-2.65;66.50;97604.41;5033348;28;20041;-76
2021/03/06 03:16:40;;;;;;;10.77;6.57;;;;;;;-2.72;66.54;97598.06;4936815;29;20051;-76
2021/03/06 03:19:14;;;;;;;12.18;7.20;;;;;;;-2.76;66.55;97599.19;4947129;29;20057;-76
2021/03/06 03:21:43;;;;;;;;;;;;;;;-2.81;66.60;97603.81;4999191;28;20440;-76
2021/03/06 03:24:16;;;;;;;22.38;8.20;;;;;;;-2.88;66.64;97600.84;5033053;28;19913;-76
2021/03/06 03:26:43;;;;;;;14.13;7.35;;;;;;;-2.94;66.57;97598.72;5032889;28;20052;-76
2021/03/06 03:29:12;;;;;;;13.10;7.55;;;;;;;-2.99;66.83;97590.50;5032335;28;20045;-76
2021/03/06 03:31:39;;;;;;;12.07;7.53;;;;;;;-3.04;66.65;97595.97;5021589;28;20038;-76
2021/03/06 03:34:08;;;;;;;12.55;7.03;;;;;;;-3.09;66.79;97588.59;5033461;28;20045;-76
2021/03/06 03:36:34;;;;;;;13.15;7.32;;;;;;;-3.12;66.92;97591.34;5017794;28;20042;-76
2021/03/06 03:39:01;;;;;;;11.32;7.28;;;;;;;-3.12;66.75;97601.59;5033313;28;20060;-76
2021/03/06 03:41:28;;;;;;;13.98;8.00;;;;;;;-3.12;66.78;97590.53;5032985;28;20041;-76
2021/03/06 03:43:55;;;;;;;12.55;7.60;;;;;;;-3.12;66.84;97599.03;5032761;28;20393;-76
2021/03/06 03:46:22;;;;;;;19.02;7.47;;;;;;;-3.12;66.74;97596.47;5032702;28;20467;-77
2021/03/06 03:48:50;;;;;;;11.93;7.95;;;;;;;-3.15;66.65;97594.13;5033409;28;20048;-76
2021/03/06 03:51:16;;;;;;;12.85;7.15;;;;;;;-3.15;66.60;97598.41;5032170;28;20029;-76
2021/03/06 03:53:43;;;;;;;9.68;7.20;;;;;;;-3.16;66.41;97595.03;5032603;28;20056;-76
2021/03/06 03:56:10;;;;;;;9.50;6.50;;;;;;;-3.15;66.37;97593.28;5005482;28;20033;-77
2021/03/06 03:58:36;;;;;;;11.43;7.35;;;;;;;-3.12;66.40;97600.78;5015157;28;20045;-75
2021/03/06 04:01:02;;;;;;;9.07;6.72;;;;;;;-3.11;66.39;97593.00;5031930;28;20577;-76
2021/03/06 04:03:29;;;;;;;10.15;7.30;;;;;;;-3.11;66.20;97600.69;5032592;28;20029;-76
2021/03/06 04:06:01;;;;;;;11.90;7.35;;;;;;;-3.13;65.74;97599.97;5032381;28;20037;-76
2021/03/06 04:08:27;;;;;;;14.00;6.95;;;;;;;-3.12;65.88;97600.78;5032388;28;20037;-76
2021/03/06 04:10:53;;;;;;;10.38;6.93;;;;;;;-3.11;65.89;97604.97;5014970;28;20462;-76
2021/03/06 04:13:19;;;;;;;9.85;7.28;;;;;;;-3.12;65.93;97605.94;5032593;28;20037;-76
2021/03/06 04:15:46;;;;;;;8.95;6.40;;;;;;;-3.10;65.84;97609.22;5032766;28;20060;-77
2021/03/06 04:18:12;;;;;;;13.35;7.40;;;;;;;-3.14;65.98;97611.16;5032312;28;20044;-77
2021/03/06 04:20:38;;;;;;;11.32;7.15;;;;;;;-3.15;66.15;97616.38;5014829;28;20052;-76
2021/03/06 04:23:04;;;;;;;10.75;7.68;;;;;;;-3.16;66.07;97617.31;5032306;28;20052;-76
2021/03/06 04:25:31;;;;;;;10.05;6.55;;;;;;;-3.19;65.88;97609.81;5032081;28;20045;-76
2021/03/06 04:27:57;;;;;;;10.98;7.40;;;;;;;-3.20;66.00;97611.56;5032277;28;20049;-77
2021/03/06 04:30:24;;;;;;;10.20;6.72;;;;;;;-3.22;66.06;97623.66;5031923;28;20037;-76
2021/03/06 04:32:51;;;;;;;11.32;8.02;;;;;;;-3.22;66.05;97615.97;5032163;28;20065;-76
2021/03/06 04:35:17;;;;;;;9.52;6.35;;;;;;;-3.22;66.23;97628.81;5032733;28;20037;-76
2021/03/06 04:37:43;;;;;;;13.98;7.00;;;;;;;-3.23;65.88;97611.78;5032487;28;20057;-77
2021/03/06 04:40:11;;;;;;;11.32;8.07;;;;;;;-3.24;65.84;97617.81;5016230;28;20049;-76
2021/03/06 04:42:39;;;;;;;10.80;6.95;;;;;;;-3.26;65.52;97617.91;5036299;28;20045;-76
2021/03/06 04:45:06;;;;;;;10.45;6.97;;;;;;;-3.26;65.67;97623.03;5036277;28;20060;-76
2021/03/06 04:47:33;;;;;;;9.30;6.53;;;;;;;-3.24;65.48;97630.66;5035713;28;20375;-76
2021/03/06 04:50:00;;;;;;;8.98;7.07;;;;;;;-3.27;65.84;97626.56;5036048;28;20037;-76
2021/03/06 04:52:27;;;;;;;13.48;7.85;;;;;;;-3.23;65.79;97629.75;5035782;28;20492;-77
2021/03/06 04:54:53;;;;;;;12.60;8.27;;;;;;;-3.22;66.10;97620.28;5036128;28;20056;-76
2021/03/06 04:57:19;;;;;;;10.95;7.15;;;;;;;-3.26;65.59;97623.03;5035942;28;20500;-76
2021/03/06 04:59:46;;;;;;;11.27;7.60;;;;;;;-3.32;65.65;97626.03;5017782;28;20405;-76
2021/03/06 05:02:12;;;;;;;11.45;7.18;;;;;;;-3.36;65.80;97623.75;5035983;28;20072;-76
2021/03/06 05:04:38;;;;;;;12.10;7.22;;;;;;;-3.39;65.78;97626.53;5034786;28;20049;-76
2021/03/06 05:07:04;;;;;;;13.65;7.63;;;;;;;-3.41;65.63;97620.69;5035329;28;20489;-76
2021/03/06 05:09:31;;;;;;;14.10;7.65;;;;;;;-3.44;65.66;97623.44;5034960;28;20052;-76
2021/03/06 05:11:57;;;;;;;11.00;7.50;;;;;;;-3.48;65.71;97620.28;5017771;28;20052;-76
2021/03/06 05:14:23;;;;;;;12.90;7.30;;;;;;;-3.53;65.85;97619.75;5035633;28;20048;-76
2021/03/06 05:16:49;;;;;;;12.60;7.72;;;;;;;-3.52;65.75;97614.53;5035638;28;20482;-76
2021/03/06 05:19:16;;;;;;;13.32;8.15;;;;;;;-3.52;65.88;97622.22;5035433;28;20033;-76
2021/03/06 05:21:42;;;;;;;12.20;7.95;;;;;;;-3.53;65.55;97617.19;5034871;28;20053;-76
2021/03/06 05:24:08;;;;;;;12.27;7.43;;;;;;;-3.51;65.27;97617.91;5035450;28;20422;-77
2021/03/06 05:26:35;;;;;;;10.68;6.78;;;;;;;-3.49;65.73;97624.56;5033848;28;20065;-76
2021/03/06 05:29:01;;;;;;;11.50;6.80;;;;;;;-3.49;65.71;97632.25;5035771;28;20053;-76
2021/03/06 05:31:28;;;;;;;12.25;7.82;;;;;;;-3.51;65.28;97628.16;5035381;28;20046;-76
2021/03/06 05:33:54;;;;;;;11.43;7.45;;;;;;;-3.53;65.82;97635.97;5017975;28;20072;-76
2021/03/06 05:36:21;;;;;;;10.45;6.57;;;;;;;-3.54;65.54;97636.88;5034839;28;20053;-76
2021/03/06 05:38:47;;;;;;;10.43;6.95;;;;;;;-3.57;65.65;97633.69;5035456;28;20046;-76
2021/03/06 05:41:13;;;;;;;11.98;8.20;;;;;;;-3.59;65.59;97638.94;5035342;28;20072;-76
2021/03/06 05:43:40;;;;;;;10.57;7.43;;;;;;;-3.61;65.53;97627.97;5035535;28;20375;-76
2021/03/06 05:46:06;;;;;;;12.70;7.80;;;;;;;-3.64;65.48;97633.28;5034889;28;20052;-76
2021/03/06 05:48:32;;;;;;;12.98;8.25;;;;;;;-3.68;65.40;97635.19;5034916;28;20056;-76
2021/03/06 05:51:01;;;;;;;11.80;7.15;;;;;;;-3.70;65.53;97633.66;5035103;28;20049;-76
2021/03/06 05:53:30;;;;;;;12.60;7.32;;;;;;;-3.75;65.43;97633.16;5034882;28;20045;-76
2021/03/06 05:55:58;;;;;;;11.80;8.73;;;;;;;-3.76;65.76;97632.34;5035154;28;20512;-76
2021/03/06 05:58:29;;;;;;;11.13;7.00;;;;;;;-3.77;65.52;97625.56;5034858;28;20033;-76
2021/03/06 06:00:55;;;;;;;11.35;7.13;;;;;;;-3.76;65.39;97629.78;5034920;28;20049;-76
2021/03/06 06:03:22;;;;;;;9.70;7.20;;;;;;;-3.75;65.39;97628.84;5032806;28;20037;-76
2021/03/06 06:05:52;;;;;;;14.93;7.80;;;;;;;-3.75;65.44;97628.03;5034641;28;20072;-76
2021/03/06 06:08:19;;;;;;;11.07;7.13;;;;;;;-3.74;65.45;97627.94;5034568;28;20037;-77
2021/03/06 06:10:45;;;;;;;10.95;7.55;;;;;;;-3.75;65.34;97620.34;5034885;28;20046;-76
2021/03/06 06:13:12;;;;;;;10.75;7.25;;;;;;;-3.75;65.30;97620.34;5034806;28;20048;-77
2021/03/06 06:15:39;;;;;;;12.77;7.22;;;;;;;-3.76;65.37;97627.22;5034867;28;20397;-76
2021/03/06 06:18:05;;;;;;;15.15;8.00;;;;;;;-3.76;65.47;97622.09;5034956;28;20045;-76
2021/03/06 06:20:37;;;;;;;10.52;7.78;;;;;;;-3.75;65.51;97625.47;5034249;28;20517;-77
2021/03/06 06:23:11;;;;;;;11.13;7.45;;;;;;;-3.74;65.21;97620.25;5016004;28;20486;-76
2021/03/06 06:25:38;;;;;;;11.00;7.20;;;;;;;-3.74;65.53;97624.53;5034530;28;20053;-76
2021/03/06 06:28:05;;;;;;;12.55;8.15;;;;;;;-3.71;65.37;97626.91;5034547;28;20113;-76
2021/03/06 06:30:32;;;;;;;13.38;7.30;;;;;;;-3.37;65.54;97632.41;5034112;28;20401;-76
2021/03/06 06:33:00;;;;;;;12.45;7.90;;;;;;;-2.58;65.88;97638.19;5034349;28;20045;-76
2021/03/06 06:35:26;;;;;;;12.20;7.70;;;;;;;-1.66;65.49;97641.94;5034408;28;20041;-76
2021/03/06 06:38:00;;;;;;;10.60;7.55;;;;;;;-0.81;62.62;97628.75;5034283;28;20053;-76
2021/03/06 06:40:28;;;;;;;9.88;6.35;;;;;;;-0.10;63.51;97625.88;5033856;28;20046;-76
2021/03/06 06:42:55;;;;;;;13.65;7.13;;;;;;;0.62;62.98;97626.97;5034222;28;20049;-76
2021/03/06 06:45:22;;;;;;;13.90;7.15;;;;;;;1.28;62.21;97611.09;5033594;28;20048;-77
2021/03/06 06:47:50;;;;;;;8.45;6.43;;;;;;;1.75;60.87;97613.97;5033535;28;20501;-76
2021/03/06 06:50:33;;;;;;;10.60;7.00;;;;;;;2.04;53.64;97541.56;5033609;28;20485;-76
2021/03/06 06:53:00;;;;;;;12.05;7.07;;;;;;;2.38;59.46;97598.88;5029143;28;20416;-76
2021/03/06 06:55:40;;;;;;;12.15;6.47;;;;;;;2.57;53.66;97551.44;5034082;28;21371;-77
2021/03/06 06:58:07;;;;;;;12.20;6.22;;;;;;;2.71;58.18;97596.81;5033119;28;20413;-77
2021/03/06 07:00:35;;;;;;;9.38;6.50;;;;;;;2.90;57.46;97595.09;5033588;28;20041;-77
2021/03/06 07:03:04;;;;;;;11.20;6.97;;;;;;;3.14;56.66;97592.03;5032519;28;20040;-77
2021/03/06 07:05:35;;;;;;;11.68;6.80;;;;;;;3.29;56.70;97589.78;5026177;28;20041;-77
2021/03/06 07:08:04;;;;;;;7.85;6.47;;;;;;;3.46;55.50;97578.63;5016077;28;20048;-77
2021/03/06 07:10:38;;;;;;;8.50;6.03;;;;;;;3.63;52.48;97553.69;5032980;28;20029;-77
2021/03/06 07:13:08;;;;;;;7.63;5.35;;;;;;;3.80;54.81;97572.81;5033566;28;20046;-76
2021/03/06 07:15:36;;;;;;;7.28;5.43;;;;;;;3.91;54.52;97567.44;5033725;28;20033;-77
2021/03/06 07:18:07;;;;;;;8.60;5.97;;;;;;;3.99;54.12;97566.69;5033310;28;20045;-77
2021/03/06 07:20:39;;;;;;;10.90;6.25;;;;;;;4.10;51.66;97550.91;5033546;28;20056;-77
2021/03/06 07:23:26;;;;;;;9.95;6.70;;;;;;;4.19;50.44;97528.41;5033470;28;20036;-76
2021/03/06 07:25:59;;;;;;;6.82;5.82;;;;;;;4.26;49.50;97535.47;5033528;28;20053;-77
2021/03/06 07:28:26;;;;;;;10.77;5.13;;;;;;;4.78;56.85;97617.78;5021839;28;20033;-77
2021/03/06 07:30:57;;;;;;;7.78;6.15;;;;;;;5.46;52.26;97564.19;5015310;28;20549;-76
2021/03/06 07:33:25;;;;;;;9.85;6.18;;;;;;;5.51;51.60;97556.72;5033427;28;20033;-77
2021/03/06 07:35:54;;;;;;;7.97;6.03;;;;;;;5.38;50.64;97569.38;5032897;28;20042;-77
2021/03/06 07:38:22;;;;;;;12.18;6.47;;;;;;;5.31;50.76;97570.97;5032705;28;20061;-77
2021/03/06 07:40:52;;;;;;;10.10;6.38;;;;;;;5.19;50.02;97573.03;5032889;28;20040;-77
2021/03/06 07:43:34;;;;;;;10.13;6.50;;;;;;;5.09;48.03;97583.53;5015218;28;20474;-77
2021/03/06 07:46:01;;;;;;;9.35;7.05;;;;;;;4.99;49.74;97619.22;5032449;28;20045;-77
2021/03/06 07:48:33;;;;;;;8.32;5.30;;;;;;;5.12;53.58;97656.03;5033284;28;20461;-77
2021/03/06 07:50:59;;;;;;;11.32;6.93;;;;;;;5.53;50.03;97645.03;5031892;28;20096;-77
2021/03/06 07:53:27;;;;;;;9.57;6.93;;;;;;;5.56;49.41;97645.53;5033419;28;20033;-76
2021/03/06 07:55:54;;;;;;;9.85;7.00;;;;;;;5.49;49.16;97650.53;5033220;28;20048;-77
2021/03/06 07:58:23;;;;;;;10.05;6.80;;;;;;;5.38;47.57;97650.81;5015457;28;20402;-77
2021/03/06 08:00:53;;;;;;;12.00;7.18;;;;;;;5.19;47.93;97651.88;5032875;28;20048;-77
2021/03/06 08:03:22;;;;;;;11.57;6.90;;;;;;;5.13;47.07;97660.28;5032043;28;20057;-77
2021/03/06 08:05:50;;;;;;;10.00;7.07;;;;;;;5.12;48.08;97656.03;5032295;28;20417;-77
2021/03/06 08:08:31;;;;;;;11.18;7.13;;;;;;;5.12;46.15;97656.03;5031738;28;20049;-77
2021/03/06 08:11:17;;;;;;;11.15;7.32;;;;;;;5.02;45.68;97658.75;5015122;28;20049;-76
2021/03/06 08:13:51;;;;;;;12.63;7.20;;;;;;;5.06;46.60;97667.03;5034452;28;20041;-77
2021/03/06 08:16:40;;;;;;;12.30;7.30;;;;;;;5.11;45.62;97662.22;5021312;28;20037;-77
2021/03/06 08:19:09;;;;;;;13.55;7.53;;;;;;;5.09;46.70;97659.75;5040105;28;20033;-77
2021/03/06 08:21:36;;;;;;;10.30;7.55;;;;;;;5.01;47.08;97659.69;5039236;28;20033;-76
2021/03/06 08:24:11;;;;;;;10.95;7.97;;;;;;;4.98;45.33;97670.41;5039498;28;20040;-77
2021/03/06 08:26:39;;;;;;;10.10;7.90;;;;;;;5.09;46.90;97670.16;5028072;28;20037;-76
2021/03/06 08:29:24;;;;;;;12.52;8.75;;;;;;;5.19;45.24;97667.47;5039555;28;20037;-78
2021/03/06 08:32:33;;;;;;;13.48;8.35;;;;;;;5.34;42.43;97651.28;5037953;28;20056;-76
2021/03/06 08:35:19;;;;;;;13.45;8.18;;;;;;;5.38;44.71;97666.44;5023304;28;20484;-77
2021/03/06 08:37:47;;;;;;;13.40;8.48;;;;;;;5.37;46.20;97671.78;5039703;28;20061;-77
2021/03/06 08:40:18;;;;;;;12.90;9.23;;;;;;;5.46;45.66;97669.06;5038518;28;20049;-76
2021/03/06 08:42:49;;;;;;;15.32;8.63;;;;;;;5.62;45.88;97665.72;5021410;28;20040;-76
2021/03/06 08:45:27;;;;;;;12.07;8.80;;;;;;;5.67;44.50;97668.69;5039186;28;20037;-77
2021/03/06 08:47:57;;;;;;;12.85;9.35;;;;;;;5.74;45.43;97678.47;5031181;28;20038;-76
2021/03/06 08:50:26;;;;;;;12.52;9.55;;;;;;;5.81;44.95;97680.28;5039001;28;20382;-76
2021/03/06 08:53:01;;;;;;;13.30;8.90;;;;;;;5.76;44.73;97687.75;5021357;28;20048;-76
2021/03/06 08:55:30;;;;;;;18.13;9.23;;;;;;;5.59;44.60;97678.25;5039419;28;20500;-75
2021/03/06 08:58:07;;;;;;;12.63;9.05;;;;;;;5.46;44.74;97681.28;5038997;28;20033;-76
2021/03/06 09:00:35;;;;;;;15.00;9.25;;;;;;;5.09;44.67;97688.38;5039149;28;20049;-76
2021/03/06 09:03:27;;;;;;;13.25;9.48;;;;;;;4.89;44.63;97679.09;5038056;28;20394;-76
2021/03/06 09:05:58;;;;;;;13.00;9.13;;;;;;;4.83;45.11;97687.50;5037658;28;20048;-76
2021/03/06 09:08:25;;;;;;;15.02;9.57;;;;;;;4.83;46.01;97680.56;5025344;28;20032;-75
2021/03/06 09:10:57;;;;;;;13.85;10.13;;;;;;;4.88;45.54;97680.91;5039589;28;20374;-76
2021/03/06 09:13:25;;;;;;;13.43;9.73;;;;;;;4.82;45.60;97681.50;5038875;28;20037;-76
2021/03/06 09:15:53;;;;;;;13.23;9.80;;;;;;;4.65;45.59;97680.56;5038884;28;20041;-75
2021/03/06 09:18:25;;;;;;;13.40;9.70;;;;;;;4.41;45.77;97672.53;5020638;28;20037;-76
2021/03/06 09:21:11;;;;;;;15.50;10.27;;;;;;;4.30;44.52;97675.38;5038638;28;20040;-77
2021/03/06 09:23:41;;;;;;;16.52;10.05;;;;;;;4.06;45.47;97669.78;5038197;28;20060;-75
2021/03/06 09:26:13;;;;;;;12.93;9.05;;;;;;;4.03;46.13;97683.06;5036489;28;20052;-75
2021/03/06 09:28:40;;;;;;;15.65;8.95;;;;;;;3.95;45.99;97670.00;5034772;28;20045;-75
2021/03/06 09:31:28;;;;;;;13.48;8.98;;;;;;;3.94;46.98;97672.72;5017961;28;20041;-75
2021/03/06 09:33:55;;;;;;;14.88;8.68;;;;;;;4.10;46.92;97667.72;5034668;28;20045;-75
2021/03/06 09:36:27;;;;;;;12.70;9.13;;;;;;;4.01;46.26;97672.00;5035651;28;20049;-76
2021/03/06 09:38:55;;;;;;;13.90;8.98;;;;;;;3.94;46.22;97676.13;5035735;28;20057;-75
2021/03/06 09:41:23;;;;;;;15.73;8.38;;;;;;;4.09;46.56;97684.25;5017765;28;20046;-76
2021/03/06 09:44:01;;;;;;;14.90;9.32;;;;;;;4.32;46.58;97670.84;5034924;28;20046;-75
2021/03/06 09:46:32;;;;;;;10.77;7.90;;;;;;;4.13;45.22;97677.78;5041335;28;20038;-76
2021/03/06 09:49:06;;;;;;;11.95;8.50;;;;;;;3.94;44.79;97659.75;5035491;28;20033;-76
2021/03/06 09:51:43;;;;;;;13.38;9.13;;;;;;;3.99;45.59;97678.28;5017922;28;20057;-76
2021/03/06 09:54:11;;;;;;;11.93;8.18;;;;;;;4.02;45.65;97658.06;5034732;28;20076;-76
2021/03/06 09:56:47;;;;;;;12.07;8.07;;;;;;;3.93;44.38;97674.53;5035568;28;20061;-76
2021/03/06 09:59:14;;;;;;;12.88;8.57;;;;;;;3.96;45.68;97676.81;5035480;28;20044;-76
2021/03/06 10:01:40;;;;;;;12.70;9.02;;;;;;;3.93;45.39;97664.13;5018174;28;20034;-76
2021/03/06 10:04:23;;;;;;;12.43;8.88;;;;;;;3.99;45.36;97667.91;5035235;28;20041;-76
2021/03/06 10:06:52;;;;;;;11.73;8.02;;;;;;;4.06;45.45;97659.41;5034946;28;20045;-76
2021/03/06 10:09:21;;;;;;;9.50;7.32;;;;;;;4.26;45.52;97667.88;4999466;28;20458;-77
2021/03/06 10:11:52;;;;;;;10.98;8.02;;;;;;;4.11;44.79;97663.34;5034691;28;20056;-76
2021/03/06 10:14:21;;;;;;;11.30;8.50;;;;;;;3.93;44.97;97669.31;5035151;28;20037;-75
2021/03/06 10:17:01;;;;;;;11.63;8.25;;;;;;;3.96;44.90;97663.03;5033713;28;20037;-76
2021/03/06 10:19:31;;;;;;;13.52;8.77;;;;;;;4.04;45.86;97661.31;5034494;28;20040;-77
2021/03/06 10:22:02;;;;;;;11.70;8.48;;;;;;;4.28;46.12;97662.53;5032749;28;20500;-75
2021/03/06 10:24:29;;;;;;;10.98;8.02;;;;;;;4.51;46.14;97655.09;5034196;28;20049;-76
2021/03/06 10:27:02;;;;;;;13.10;8.80;;;;;;;4.70;45.53;97654.13;5034771;28;20037;-76
2021/03/06 10:29:30;;;;;;;12.77;8.38;;;;;;;4.82;45.52;97652.91;5033891;28;20041;-76
2021/03/06 10:31:58;;;;;;;10.07;7.70;;;;;;;4.77;45.01;97647.38;5034434;28;20049;-76
2021/03/06 10:34:27;;;;;;;13.05;7.20;;;;;;;4.76;44.99;97650.09;5034156;28;20060;-77
2021/03/06 10:37:14;;;;;;;9.40;6.72;;;;;;;4.50;42.21;97652.69;5031090;28;20064;-75
2021/03/06 10:40:00;;;;;;;11.13;7.38;;;;;;;4.45;43.90;97655.69;5034422;28;20061;-76
2021/03/06 10:42:46;;;;;;;10.20;7.53;;;;;;;4.41;43.23;97650.00;5034410;28;20029;-76
2021/03/06 10:45:27;;;;;;;11.02;7.40;;;;;;;4.36;42.48;97646.22;5034563;28;20040;-76
2021/03/06 10:48:02;;;;;;;10.88;7.40;;;;;;;4.34;42.63;97655.94;5016714;28;20033;-76
2021/03/06 10:50:39;;;;;;;10.75;7.13;;;;;;;4.31;43.88;97656.25;5034321;28;20044;-76
2021/03/06 10:53:12;;;;;;;10.32;7.13;;;;;;;4.45;43.86;97658.28;5034312;28;20401;-77
2021/03/06 10:55:39;;;;;;;10.30;7.00;;;;;;;4.64;44.33;97650.34;5034201;28;20397;-76
2021/03/06 10:58:05;;;;;;;11.52;7.30;;;;;;;4.78;43.54;97645.56;5037999;28;20056;-76
2021/03/06 11:00:32;;;;;;;10.27;6.45;;;;;;;4.98;43.90;97652.22;5034147;28;20046;-76
2021/03/06 11:03:01;;;;;;;8.88;6.50;;;;;;;5.08;42.19;97646.91;5034004;28;20026;-76
2021/03/06 11:05:28;;;;;;;9.25;6.00;;;;;;;5.13;42.60;97652.47;5033475;28;20037;-76
2021/03/06 11:07:57;;;;;;;11.18;5.97;;;;;;;5.08;42.19;97658.13;5033886;28;20040;-76
2021/03/06 11:10:27;;;;;;;7.15;5.55;;;;;;;5.08;40.95;97647.75;5033636;28;20037;-76
2021/03/06 11:12:58;;;;;;;9.07;5.47;;;;;;;5.15;41.58;97639.31;5033423;28;20056;-76
2021/03/06 11:15:26;;;;;;;8.25;5.53;;;;;;;5.21;41.63;97641.31;5032882;28;20076;-76
2021/03/06 11:17:56;;;;;;;8.25;6.28;;;;;;;5.47;41.66;97649.88;5015240;28;20064;-77
2021/03/06 11:20:27;;;;;;;7.57;5.72;;;;;;;5.51;39.14;97650.41;5033341;28;20037;-76
2021/03/06 11:22:54;;;;;;;8.77;6.00;;;;;;;5.54;40.40;97659.66;5016335;28;20053;-76
2021/03/06 11:25:22;;;;;;;7.28;5.22;;;;;;;5.77;41.06;97657.31;5033473;28;20041;-76
2021/03/06 11:27:57;;;;;;;7.65;5.70;;;;;;;5.88;39.45;97652.66;5015374;28;20053;-76
2021/03/06 11:30:31;;;;;;;8.15;5.65;;;;;;;6.22;40.46;97650.97;5020442;28;20482;-76
2021/03/06 11:32:58;;;;;;;9.32;6.05;;;;;;;6.49;39.89;97655.88;5033774;28;20037;-76
2021/03/06 11:35:25;;;;;;;10.88;5.40;;;;;;;6.60;39.51;97659.97;5016171;28;20038;-76
2021/03/06 11:37:52;;;;;;;7.97;5.82;;;;;;;6.62;39.16;97652.81;5033352;28;20057;-76
2021/03/06 11:40:22;;;;;;;7.03;5.47;;;;;;;6.70;38.86;97638.97;5033220;28;20056;-76
2021/03/06 11:42:48;;;;;;;24.90;7.47;;;;;;;6.85;38.99;97631.28;5033222;28;20030;-77